Time;durP1;ratioP1;P1;durP2;ratioP2;P2;SDS_P1;SDS_P2;PMS_P1;PMS_P2;Temp;Humidity;BMP_temperature;BMP_pressure;BME280_temperature;BME280_humidity;BME280_pressure;Samples;Min_cycle;Max_cycle;Signal;HPM_P1;HPM_P2
2023/01/23 00:01:41;;;;;;;21.15;11.60;;;;;;;-0.93;100.00;102425.00;4897339;29;20027;-95
2023/01/23 00:04:08;;;;;;;17.88;11.50;;;;;;;-0.92;100.00;102430.97;4897517;29;20060;-94
2023/01/23 00:06:34;;;;;;;17.00;11.35;;;;;;;-1.07;100.00;102413.75;4897212;29;20506;-94
2023/01/23 00:09:00;;;;;;;17.02;11.20;;;;;;;-0.95;100.00;102444.44;4897124;29;20029;-95
2023/01/23 00:11:28;;;;;;;18.50;12.43;;;;;;;-1.04;100.00;102426.47;4897125;29;20031;-95
2023/01/23 00:13:55;;;;;;;20.92;12.82;;;;;;;-1.12;100.00;102438.13;4897370;29;20036;-95
2023/01/23 00:16:23;;;;;;;21.20;13.05;;;;;;;-1.12;100.00;102428.00;4896961;29;20021;-95
2023/01/23 00:18:50;;;;;;;17.33;12.13;;;;;;;-1.04;100.00;102426.47;4896829;29;20123;-94
2023/01/23 00:21:18;;;;;;;21.38;12.65;;;;;;;-1.19;100.00;102391.50;4897104;29;20032;-96
2023/01/23 00:23:47;;;;;;;19.40;11.68;;;;;;;-1.05;100.00;102408.69;4897329;29;20040;-94
2023/01/23 00:26:15;;;;;;;16.58;11.05;;;;;;;-1.21;100.00;102385.56;4896626;29;20451;-95
2023/01/23 00:28:42;;;;;;;15.32;10.25;;;;;;;-0.99;100.00;102429.97;4896845;29;20036;-94
2023/01/23 00:31:11;;;;;;;17.45;10.65;;;;;;;-1.12;100.00;102417.84;4896709;29;20021;-95
2023/01/23 00:33:41;;;;;;;16.45;10.57;;;;;;;-1.21;100.00;102417.63;4896851;29;20032;-95
2023/01/23 00:36:07;;;;;;;16.17;10.38;;;;;;;-1.49;100.00;102373.91;4896608;29;20630;-94
2023/01/23 00:38:33;;;;;;;16.40;10.70;;;;;;;-1.22;100.00;102431.09;4896780;29;20020;-95
2023/01/23 00:40:58;;;;;;;15.32;10.02;;;;;;;-1.34;100.00;102404.69;4897195;29;20394;-96
2023/01/23 00:43:24;;;;;;;16.77;10.60;;;;;;;-1.51;100.00;102381.50;4896722;29;20058;-95
2023/01/23 00:45:50;;;;;;;16.60;10.57;;;;;;;-1.27;100.00;102413.25;4896955;29;20025;-95
2023/01/23 00:48:16;;;;;;;20.85;10.85;;;;;;;-1.54;100.00;102373.84;4896829;29;20043;-94
2023/01/23 00:50:42;;;;;;;16.33;10.13;;;;;;;-1.37;100.00;102399.53;4896506;29;20024;-95
2023/01/23 00:53:07;;;;;;;15.32;9.90;;;;;;;-1.26;100.00;102416.69;4896410;29;20389;-95
2023/01/23 00:55:33;;;;;;;16.25;10.23;;;;;;;-1.40;100.00;102402.00;4896506;29;20032;-95
2023/01/23 00:57:59;;;;;;;16.45;10.25;;;;;;;-1.34;100.00;102422.41;4896420;29;20034;-95
2023/01/23 01:00:25;;;;;;;16.05;9.77;;;;;;;-1.43;100.00;102409.53;4896518;29;20503;-94
2023/01/23 01:02:50;;;;;;;15.30;10.18;;;;;;;-1.22;100.00;102433.63;4896621;29;20032;-95
2023/01/23 01:05:17;;;;;;;18.05;11.05;;;;;;;-1.15;100.00;102427.91;4896711;29;20050;-96
2023/01/23 01:07:43;;;;;;;18.02;10.68;;;;;;;-0.89;100.00;102472.44;4897438;29;20024;-95
2023/01/23 01:10:10;;;;;;;18.05;11.55;;;;;;;-0.90;100.00;102440.31;4899977;29;20051;-96
2023/01/23 01:12:37;;;;;;;21.65;11.88;;;;;;;-0.84;100.00;102433.66;4900074;29;20427;-95
2023/01/23 01:15:03;;;;;;;20.40;11.93;;;;;;;-0.84;100.00;102423.53;4900200;29;20032;-96
2023/01/23 01:17:29;;;;;;;17.13;11.57;;;;;;;-0.63;100.00;102459.47;4899862;29;20025;-95
2023/01/23 01:22:22;;;;;;;17.83;11.32;;;;;;;-0.59;100.00;102442.63;4901181;29;20550;-94
2023/01/23 01:24:48;;;;;;;22.52;11.93;;;;;;;-0.66;100.00;102427.31;4900077;29;20036;-95
2023/01/23 01:27:13;;;;;;;18.10;11.27;;;;;;;-0.53;100.00;102445.31;4899962;29;20040;-95
2023/01/23 01:29:39;;;;;;;17.83;11.65;;;;;;;-0.46;100.00;102448.00;4900734;29;20028;-94
2023/01/23 01:32:05;;;;;;;17.40;11.35;;;;;;;-0.51;100.00;102433.53;4900453;29;20131;-94
2023/01/23 01:34:30;;;;;;;18.40;10.25;;;;;;;-0.45;100.00;102439.56;4899595;29;20041;-95
2023/01/23 01:36:56;;;;;;;14.75;10.65;;;;;;;-0.20;100.00;102475.56;4899701;29;20483;-95
2023/01/23 01:39:22;;;;;;;15.15;10.20;;;;;;;-0.31;100.00;102460.13;4899485;29;20053;-95
2023/01/23 01:41:47;;;;;;;16.83;10.95;;;;;;;-0.30;100.00;102463.53;4899396;29;20096;-96
2023/01/23 01:44:18;;;;;;;14.80;10.15;;;;;;;-0.26;100.00;102457.69;4898997;29;20051;-95
2023/01/23 01:46:44;;;;;;;15.23;9.60;;;;;;;-0.21;100.00;102463.72;4899446;29;20112;-96
2023/01/23 01:49:15;;;;;;;13.90;9.90;;;;;;;-0.13;100.00;102466.41;4899174;29;20036;-95
2023/01/23 01:51:49;;;;;;;17.15;11.05;;;;;;;-0.26;100.00;102433.19;4899260;29;20056;-96
2023/01/23 01:54:37;;;;;;;15.80;10.15;;;;;;;0.00;100.00;102478.53;4899105;29;20043;-96
2023/01/23 01:57:08;;;;;;;14.82;10.30;;;;;;;-0.02;100.00;102483.56;4899103;29;20123;-95
2023/01/23 01:59:39;;;;;;;16.92;10.68;;;;;;;-0.22;100.00;102446.75;4930603;29;20059;-96
2023/01/23 02:02:15;;;;;;;14.63;9.87;;;;;;;-0.28;100.00;102459.34;4898956;29;20032;-96
2023/01/23 02:04:50;;;;;;;18.05;10.25;;;;;;;-0.34;100.00;102466.81;4899052;29;20275;-95
2023/01/23 02:07:34;;;;;;;14.40;10.55;;;;;;;-0.51;100.00;102469.03;4899007;29;20032;-96
2023/01/23 02:10:02;;;;;;;15.65;9.65;;;;;;;-0.78;100.00;102442.25;4898896;29;20032;-94
2023/01/23 02:12:29;;;;;;;15.52;10.02;;;;;;;-1.05;100.00;102423.88;4897989;29;20040;-95
2023/01/23 02:14:55;;;;;;;14.15;10.07;;;;;;;-1.25;100.00;102436.09;4894064;29;20440;-96
2023/01/23 02:17:20;;;;;;;19.42;9.35;;;;;;;-1.19;100.00;102451.47;4911391;29;20025;-95
2023/01/23 02:19:59;;;;;;;13.32;9.60;;;;;;;-1.25;100.00;102474.09;4910960;29;20507;-96
2023/01/23 02:22:36;;;;;;;13.48;9.73;;;;;;;-1.37;100.00;102478.03;4880370;29;20029;-95
2023/01/23 02:25:24;;;;;;;15.02;9.98;;;;;;;-1.80;100.00;102446.59;4880135;29;20556;-95
2023/01/23 02:27:50;;;;;;;12.63;9.25;;;;;;;-1.88;100.00;102457.31;4880043;29;20037;-95
2023/01/23 02:30:17;;;;;;;11.32;8.00;;;;;;;-2.03;100.00;102440.06;4911197;29;20037;-96
2023/01/23 02:32:43;;;;;;;13.55;8.82;;;;;;;-2.06;100.00;102461.09;4911305;29;20036;-96
2023/01/23 02:35:19;;;;;;;12.45;9.18;;;;;;;-2.29;100.00;102450.34;4879543;29;20400;-96
2023/01/23 02:37:47;;;;;;;19.02;9.43;;;;;;;-2.20;100.00;102475.03;4879516;29;20445;-96
2023/01/23 02:40:13;;;;;;;12.18;9.15;;;;;;;-2.42;100.00;102458.38;4911615;29;20029;-92
2023/01/23 02:42:41;;;;;;;16.02;10.35;;;;;;;-2.53;100.00;102444.59;4911242;29;20025;-95
2023/01/23 02:45:08;;;;;;;14.38;10.18;;;;;;;-2.45;100.00;102473.47;4911236;29;20491;-94
2023/01/23 02:47:34;;;;;;;14.38;10.18;;;;;;;-2.59;100.00;102458.75;4911674;29;20056;-93
2023/01/23 02:49:59;;;;;;;16.58;10.52;;;;;;;-2.72;100.00;102444.06;4911441;29;20033;-96
2023/01/23 02:52:25;;;;;;;16.30;10.63;;;;;;;-2.65;100.00;102486.38;4879790;29;20084;-94
2023/01/23 02:54:51;;;;;;;15.60;10.45;;;;;;;-2.62;100.00;102471.31;4879470;29;20033;-95
2023/01/23 02:57:16;;;;;;;17.75;11.27;;;;;;;-2.48;100.00;102478.47;4879628;29;20049;-94
2023/01/23 03:02:26;;;;;;;17.42;11.80;;;;;;;-2.44;100.00;102465.94;4880988;29;20060;-96
2023/01/23 03:04:52;;;;;;;17.38;11.43;;;;;;;-2.45;100.00;102473.47;4911566;29;20140;-96
2023/01/23 03:07:18;;;;;;;19.70;11.43;;;;;;;-2.63;100.00;102448.53;4879287;29;20053;-95
2023/01/23 03:09:46;;;;;;;20.83;12.15;;;;;;;-2.55;100.00;102467.28;4879739;29;20085;-94
2023/01/23 03:12:13;;;;;;;18.23;12.40;;;;;;;-2.58;100.00;102468.06;4879616;29;20400;-95
2023/01/23 03:14:39;;;;;;;19.83;12.32;;;;;;;-2.75;100.00;102438.91;4879163;29;20044;-95
2023/01/23 03:17:05;;;;;;;21.95;11.88;;;;;;;-2.75;100.00;102449.03;4879231;29;20108;-95
2023/01/23 03:19:30;;;;;;;19.45;12.73;;;;;;;-2.66;100.00;102474.56;4878962;29;20099;-95
2023/01/23 03:21:56;;;;;;;23.02;12.73;;;;;;;-2.70;100.00;102480.34;4879040;29;20381;-96
2023/01/23 03:24:22;;;;;;;20.17;12.10;;;;;;;-2.72;100.00;102459.22;4878968;29;20029;-95
2023/01/23 03:26:49;;;;;;;18.45;11.57;;;;;;;-2.85;100.00;102452.09;4909989;29;20060;-96
2023/01/23 03:32:11;;;;;;;19.23;12.48;;;;;;;-2.82;100.00;102472.41;4880141;29;20071;-96
2023/01/23 03:34:37;;;;;;;15.75;10.48;;;;;;;-2.95;100.00;102461.06;4878708;29;20028;-94
2023/01/23 03:37:03;;;;;;;18.10;11.25;;;;;;;-3.10;100.00;102446.25;4878688;29;20488;-95
2023/01/23 03:42:13;;;;;;;23.50;12.57;;;;;;;-2.73;100.00;102457.50;4879883;29;20043;-94
2023/01/23 03:44:39;;;;;;;27.98;14.23;;;;;;;-2.86;100.00;102448.69;4878660;29;20033;-96
2023/01/23 03:47:05;;;;;;;20.15;11.40;;;;;;;-2.73;100.00;102465.09;4878826;29;20115;-95
2023/01/23 03:49:31;;;;;;;19.88;11.18;;;;;;;-2.75;100.00;102466.72;4910238;29;20124;-96
2023/01/23 03:51:57;;;;;;;16.63;10.30;;;;;;;-2.80;100.00;102465.72;4878357;29;20440;-95
2023/01/23 03:54:23;;;;;;;18.58;9.77;;;;;;;-2.95;100.00;102455.13;4909618;29;20041;-96
2023/01/23 03:56:48;;;;;;;15.85;9.75;;;;;;;-2.88;100.00;102469.66;4878185;29;20029;-96
2023/01/23 03:59:14;;;;;;;15.18;10.18;;;;;;;-3.03;100.00;102462.47;4909899;29;20029;-95
2023/01/23 04:01:40;;;;;;;14.55;10.07;;;;;;;-3.07;100.00;102473.31;4909581;29;20025;-94
2023/01/23 04:04:05;;;;;;;15.20;9.20;;;;;;;-2.97;100.00;102494.66;4909707;29;20029;-96
2023/01/23 04:06:31;;;;;;;19.30;10.65;;;;;;;-3.05;100.00;102480.13;4878076;29;20040;-95
2023/01/23 04:08:57;;;;;;;15.65;9.75;;;;;;;-2.92;100.00;102495.66;4878276;29;20032;-95
2023/01/23 04:11:26;;;;;;;14.43;9.45;;;;;;;-2.96;100.00;102493.84;4878180;29;20033;-95
2023/01/23 04:13:52;;;;;;;22.38;9.60;;;;;;;-2.91;100.00;102497.38;4878283;29;20502;-95
2023/01/23 04:16:18;;;;;;;15.20;9.48;;;;;;;-2.90;100.00;102482.28;4909596;29;20496;-95
2023/01/23 04:18:44;;;;;;;19.63;10.23;;;;;;;-2.99;100.00;102478.59;4877963;29;20029;-96
2023/01/23 04:21:09;;;;;;;15.43;9.73;;;;;;;-2.95;100.00;102495.53;4878089;29;20026;-95
2023/01/23 04:23:35;;;;;;;14.70;9.38;;;;;;;-3.14;100.00;102458.78;4909517;29;20032;-93
2023/01/23 04:26:00;;;;;;;14.38;8.93;;;;;;;-3.14;100.00;102489.06;4909358;29;20037;-96
2023/01/23 04:28:26;;;;;;;17.33;9.40;;;;;;;-3.18;100.00;102462.84;4909401;29;20052;-95
2023/01/23 04:30:52;;;;;;;13.02;8.70;;;;;;;-3.33;100.00;102443.03;4909390;29;20022;-95
2023/01/23 04:33:19;;;;;;;14.55;8.27;;;;;;;-3.27;100.00;102449.94;4878127;29;20029;-95
2023/01/23 04:35:58;;;;;;;14.32;9.25;;;;;;;-3.15;100.00;102462.09;4909353;29;20029;-95
2023/01/23 04:38:25;;;;;;;17.52;9.85;;;;;;;-3.28;100.00;102444.03;4877989;29;20116;-95
2023/01/23 04:40:51;;;;;;;15.10;10.27;;;;;;;-2.98;100.00;102495.47;4877919;29;20040;-94
2023/01/23 04:43:17;;;;;;;15.57;10.45;;;;;;;-3.15;100.00;102465.47;4881329;29;20040;-95
2023/01/23 04:45:43;;;;;;;23.25;11.80;;;;;;;-3.07;100.00;102464.06;4881845;29;20295;-94
2023/01/23 04:48:11;;;;;;;15.23;9.93;;;;;;;-2.80;100.00;102476.69;4881542;29;20115;-94
2023/01/23 04:50:36;;;;;;;22.65;11.73;;;;;;;-2.81;100.00;102479.16;4881143;29;20036;-95
2023/01/23 04:53:02;;;;;;;15.15;9.68;;;;;;;-2.91;100.00;102472.09;4912841;29;20056;-95
2023/01/23 04:55:28;;;;;;;16.50;9.95;;;;;;;-2.92;100.00;102471.25;4881686;29;20033;-94
2023/01/23 04:57:54;;;;;;;16.30;9.27;;;;;;;-3.06;100.00;102457.34;4881247;29;20065;-95
2023/01/23 05:00:20;;;;;;;19.13;10.95;;;;;;;-3.07;100.00;102473.31;4912958;29;20119;-95
2023/01/23 05:02:47;;;;;;;16.80;10.18;;;;;;;-3.15;100.00;102452.84;4881310;29;20112;-95
2023/01/23 05:05:13;;;;;;;16.90;10.38;;;;;;;-3.15;100.00;102472.19;4912403;29;20068;-95
2023/01/23 05:07:39;;;;;;;17.63;10.40;;;;;;;-3.28;100.00;102463.38;4912319;29;20486;-94
2023/01/23 05:10:05;;;;;;;18.50;11.38;;;;;;;-3.24;100.00;102458.47;4881138;29;20029;-95
2023/01/23 05:12:31;;;;;;;17.58;11.10;;;;;;;-3.21;100.00;102467.81;4913169;29;20033;-95
2023/01/23 05:14:56;;;;;;;17.63;9.63;;;;;;;-3.15;100.00;102477.25;4912472;29;20069;-95
2023/01/23 05:17:22;;;;;;;17.75;10.90;;;;;;;-3.20;100.00;102468.66;4880985;29;20110;-94
2023/01/23 05:19:48;;;;;;;20.80;11.82;;;;;;;-3.15;100.00;102482.28;4880966;29;20033;-95
2023/01/23 05:22:14;;;;;;;18.85;11.82;;;;;;;-3.18;100.00;102467.91;4912491;29;20091;-95
2023/01/23 05:24:39;;;;;;;20.33;11.23;;;;;;;-3.23;100.00;102472.81;4880708;29;20119;-93
2023/01/23 05:27:05;;;;;;;19.05;11.55;;;;;;;-3.34;100.00;102470.75;4880921;29;20396;-94
2023/01/23 05:29:30;;;;;;;16.77;11.23;;;;;;;-3.31;100.00;102476.75;4880706;29;20029;-94
2023/01/23 05:31:56;;;;;;;21.38;11.73;;;;;;;-3.32;100.00;102474.19;4912468;29;20483;-94
2023/01/23 05:34:21;;;;;;;20.33;11.52;;;;;;;-3.40;100.00;102473.06;4880683;29;20032;-94
2023/01/23 05:36:47;;;;;;;21.60;11.45;;;;;;;-3.29;100.00;102499.50;4912154;29;20029;-95
2023/01/23 05:39:12;;;;;;;19.92;11.80;;;;;;;-3.35;100.00;102479.13;4880801;29;20025;-94
2023/01/23 05:41:38;;;;;;;23.80;12.23;;;;;;;-3.43;100.00;102460.38;4880715;29;20033;-95
2023/01/23 05:44:03;;;;;;;21.73;12.18;;;;;;;-3.20;100.00;102483.81;4880545;29;20069;-95
2023/01/23 05:46:29;;;;;;;21.65;11.63;;;;;;;-3.34;100.00;102460.63;4880256;29;20029;-94
2023/01/23 05:48:54;;;;;;;19.83;11.55;;;;;;;-3.33;100.00;102467.41;4911746;29;20036;-94
2023/01/23 05:51:22;;;;;;;20.15;10.63;;;;;;;-3.26;100.00;102481.97;4880379;29;20029;-95
2023/01/23 05:53:47;;;;;;;22.08;11.15;;;;;;;-3.27;100.00;102465.97;4879675;29;20488;-96
2023/01/23 05:56:13;;;;;;;20.92;12.00;;;;;;;-3.26;100.00;102469.34;4880472;29;20101;-95
2023/01/23 05:58:38;;;;;;;19.50;11.00;;;;;;;-3.20;100.00;102474.56;4911785;29;20029;-95
2023/01/23 06:01:04;;;;;;;17.83;11.30;;;;;;;-3.13;100.00;102496.69;4880747;29;20392;-95
2023/01/23 06:03:30;;;;;;;17.73;10.05;;;;;;;-3.11;100.00;102499.28;4911655;29;20064;-96
2023/01/23 06:05:56;;;;;;;16.05;10.07;;;;;;;-3.17;100.00;102489.84;4880388;29;20033;-95
2023/01/23 06:08:21;;;;;;;17.88;10.32;;;;;;;-3.11;100.00;102494.22;4879731;29;20481;-94
2023/01/23 06:10:47;;;;;;;20.27;10.90;;;;;;;-3.13;100.00;102490.78;4880486;29;20055;-93
2023/01/23 06:13:12;;;;;;;20.40;9.32;;;;;;;-3.09;100.00;102493.47;4880454;29;20028;-95
2023/01/23 06:15:38;;;;;;;18.55;9.73;;;;;;;-3.13;100.00;102481.53;4911419;29;20031;-94
2023/01/23 06:18:03;;;;;;;14.70;9.55;;;;;;;-3.18;100.00;102467.06;4910984;29;20061;-95
2023/01/23 06:20:29;;;;;;;16.35;9.20;;;;;;;-3.08;100.00;102494.31;4911481;29;20044;-93
2023/01/23 06:22:54;;;;;;;18.60;9.45;;;;;;;-2.99;100.00;102509.75;4880835;29;20420;-93
2023/01/23 06:25:21;;;;;;;14.63;8.35;;;;;;;-3.21;100.00;102475.38;4880083;29;20053;-95
2023/01/23 06:27:47;;;;;;;16.10;8.90;;;;;;;-3.18;100.00;102485.59;4911403;29;20037;-95
2023/01/23 06:30:14;;;;;;;15.38;9.38;;;;;;;-3.04;100.00;102519.72;4880227;29;20268;-93
2023/01/23 06:32:39;;;;;;;18.42;9.20;;;;;;;-3.18;100.00;102498.22;4880013;29;20029;-95
2023/01/23 06:35:05;;;;;;;16.98;8.07;;;;;;;-3.14;100.00;102494.97;4911628;29;20400;-93
2023/01/23 06:37:31;;;;;;;11.82;7.45;;;;;;;-3.25;100.00;102487.03;4911169;29;20036;-95
2023/01/23 06:39:56;;;;;;;14.95;8.13;;;;;;;-3.12;100.00;102495.91;4879509;29;20025;-94
2023/01/23 06:42:22;;;;;;;13.48;8.13;;;;;;;-3.14;100.00;102499.19;4880034;29;20476;-96
2023/01/23 06:44:48;;;;;;;11.82;7.45;;;;;;;-3.23;100.00;102494.69;4879748;29;20052;-96
2023/01/23 06:47:15;;;;;;;13.27;7.50;;;;;;;-3.01;100.00;102529.91;4879667;29;20028;-95
2023/01/23 06:49:41;;;;;;;11.13;7.25;;;;;;;-3.02;100.00;102523.16;4879456;29;20053;-96
2023/01/23 06:52:06;;;;;;;15.05;7.55;;;;;;;-3.10;100.00;102516.97;4879548;29;20467;-95
2023/01/23 06:54:32;;;;;;;12.75;7.15;;;;;;;-3.01;100.00;102534.13;4879766;29;20567;-94
2023/01/23 06:56:57;;;;;;;12.05;7.32;;;;;;;-3.14;100.00;102501.72;4910536;29;20476;-96
2023/01/23 06:59:23;;;;;;;12.32;7.07;;;;;;;-3.03;100.00;102518.91;4910435;29;20025;-94
2023/01/23 07:01:48;;;;;;;11.88;6.95;;;;;;;-3.12;100.00;102520.28;4911486;29;20093;-95
2023/01/23 07:04:14;;;;;;;10.00;7.10;;;;;;;-3.17;100.00;102505.00;4911002;29;20037;-95
2023/01/23 07:06:39;;;;;;;12.45;6.90;;;;;;;-3.10;100.00;102526.22;4910516;29;20029;-96
2023/01/23 07:09:05;;;;;;;14.68;8.20;;;;;;;-3.17;100.00;102515.09;4879079;29;20370;-96
2023/01/23 07:11:31;;;;;;;14.75;7.53;;;;;;;-3.23;100.00;102500.59;4879729;29;20029;-95
2023/01/23 07:13:56;;;;;;;13.35;7.47;;;;;;;-3.08;100.00;102534.72;4879494;29;20044;-95
2023/01/23 07:16:23;;;;;;;13.07;7.13;;;;;;;-3.09;100.00;102512.81;4878889;29;20048;-95
2023/01/23 07:18:49;;;;;;;13.00;7.00;;;;;;;-3.03;100.00;102539.09;4910030;29;20416;-95
2023/01/23 07:21:14;;;;;;;12.65;7.35;;;;;;;-3.24;100.00;102519.09;4909931;29;20049;-96
2023/01/23 07:23:40;;;;;;;13.30;8.05;;;;;;;-3.22;100.00;102516.59;4909999;29;20063;-94
2023/01/23 07:26:08;;;;;;;11.20;6.68;;;;;;;-2.95;100.00;102525.88;4884013;29;20029;-95
2023/01/23 07:28:38;;;;;;;12.93;7.55;;;;;;;-2.82;100.00;102531.38;4878785;29;20040;-95
2023/01/23 07:31:04;;;;;;;12.52;7.72;;;;;;;-2.81;100.00;102522.09;4878514;29;20021;-95
2023/01/23 07:33:31;;;;;;;14.32;7.75;;;;;;;-2.79;100.00;102523.03;4878629;29;20069;-96
2023/01/23 07:35:56;;;;;;;14.98;7.05;;;;;;;-2.80;100.00;102549.13;4911266;29;20096;-93
2023/01/23 07:38:22;;;;;;;11.70;6.53;;;;;;;-2.74;100.00;102551.81;4878714;29;20124;-96
2023/01/23 07:40:51;;;;;;;10.38;6.72;;;;;;;-2.90;100.00;102521.81;4909923;29;20021;-95
2023/01/23 07:43:17;;;;;;;14.15;6.72;;;;;;;-2.78;100.00;102567.69;4878507;29;20123;-94
2023/01/23 07:45:43;;;;;;;10.50;6.13;;;;;;;-2.87;100.00;102559.84;4882312;29;20056;-94
2023/01/23 07:48:08;;;;;;;10.02;5.50;;;;;;;-2.69;100.00;102585.69;4882093;29;20121;-95
2023/01/23 07:50:36;;;;;;;12.55;5.65;;;;;;;-2.67;100.00;102543.63;4882104;29;20559;-94
2023/01/23 07:53:03;;;;;;;11.60;6.47;;;;;;;-2.56;100.00;102550.66;4880338;29;20035;-94
2023/01/23 07:55:29;;;;;;;8.75;6.05;;;;;;;-2.65;100.00;102551.25;4879940;29;20035;-93
2023/01/23 07:57:55;;;;;;;9.98;6.15;;;;;;;-2.70;100.00;102550.25;4911883;29;20029;-93
2023/01/23 08:00:21;;;;;;;10.07;6.28;;;;;;;-2.60;100.00;102570.81;4912845;29;20491;-94
2023/01/23 08:02:46;;;;;;;11.85;7.07;;;;;;;-2.71;100.00;102556.97;4880032;29;20033;-94
2023/01/23 08:05:12;;;;;;;13.07;6.30;;;;;;;-2.63;100.00;102580.81;4911589;29;20055;-95
2023/01/23 08:07:38;;;;;;;12.50;6.10;;;;;;;-2.71;100.00;102567.06;4880311;29;20027;-95
2023/01/23 08:10:04;;;;;;;11.98;6.40;;;;;;;-2.65;100.00;102592.56;4879877;29;20092;-94
2023/01/23 08:12:29;;;;;;;11.00;6.68;;;;;;;-2.87;100.00;102558.16;4881546;29;20033;-94
2023/01/23 08:14:55;;;;;;;11.73;6.38;;;;;;;-2.81;100.00;102568.44;4911880;29;20072;-95
2023/01/23 08:17:20;;;;;;;12.63;7.85;;;;;;;-2.52;100.00;102621.59;4880139;29;20151;-94
2023/01/23 08:19:46;;;;;;;11.38;7.22;;;;;;;-2.60;100.00;102580.06;4879987;29;20021;-94
2023/01/23 08:22:11;;;;;;;16.35;7.68;;;;;;;-2.43;100.00;102618.53;4912074;29;20382;-94
2023/01/23 08:24:37;;;;;;;11.27;7.80;;;;;;;-2.40;100.00;102580.66;4880972;29;20033;-94
2023/01/23 08:27:03;;;;;;;12.02;7.43;;;;;;;-2.09;100.00;102624.59;4880091;29;20177;-94
2023/01/23 08:29:59;;;;;;;12.13;7.28;;;;;;;-2.20;100.00;102582.13;4881823;29;20029;-95
2023/01/23 08:35:16;;;;;;;14.00;7.13;;;;;;;-1.75;100.00;102616.31;4883725;29;20079;-94
2023/01/23 08:38:48;;;;;;;8.02;5.35;;;;;;;-1.81;100.00;102581.56;4877877;29;20491;-93
2023/01/23 08:41:15;;;;;;;11.05;6.25;;;;;;;-1.57;100.00;102595.72;4878259;29;20033;-94
2023/01/23 08:43:45;;;;;;;10.15;6.43;;;;;;;-1.44;100.00;102595.25;4879267;29;20040;-96
2023/01/23 08:46:13;;;;;;;10.93;6.22;;;;;;;-1.40;100.00;102594.50;4879759;29;20052;-94
2023/01/23 08:48:40;;;;;;;11.20;6.53;;;;;;;-1.19;100.00;102606.03;4878750;29;20082;-95
2023/01/23 08:51:08;;;;;;;10.68;5.72;;;;;;;-1.17;100.00;102586.63;4909523;29;20037;-94
2023/01/23 08:53:34;;;;;;;12.75;7.13;;;;;;;-0.86;100.00;102609.38;4893647;29;20067;-95
2023/01/23 08:56:03;;;;;;;10.90;6.55;;;;;;;-0.78;100.00;102617.22;4910126;29;20029;-96
2023/01/23 08:58:31;;;;;;;9.23;5.43;;;;;;;-0.81;100.00;102585.84;4910908;29;20452;-96
2023/01/23 09:00:56;;;;;;;10.20;6.20;;;;;;;-0.50;100.00;102606.03;4894130;29;20049;-94
2023/01/23 09:03:25;;;;;;;9.18;5.72;;;;;;;-0.38;100.00;102602.06;4879156;29;20124;-95
2023/01/23 09:05:57;;;;;;;7.82;5.47;;;;;;;-0.13;100.00;102619.53;4894645;29;20037;-95
2023/01/23 09:08:23;;;;;;;11.68;5.25;;;;;;;0.10;99.02;102637.81;4880096;29;20033;-96
2023/01/23 09:10:50;;;;;;;13.02;5.55;;;;;;;0.04;98.16;102602.13;4879030;29;20036;-96
2023/01/23 09:13:18;;;;;;;8.95;5.25;;;;;;;0.35;100.00;102628.16;4894610;29;20037;-96
2023/01/23 09:15:45;;;;;;;9.35;5.05;;;;;;;0.43;97.33;102634.25;4894747;29;20065;-96
2023/01/23 09:18:10;;;;;;;8.63;5.65;;;;;;;0.51;97.49;102637.78;4910515;29;20116;-96
2023/01/23 09:20:39;;;;;;;8.88;5.50;;;;;;;0.48;97.56;102611.47;4880284;29;20064;-96
2023/01/23 09:23:05;;;;;;;8.40;4.93;;;;;;;0.48;88.18;102614.00;4879763;29;20026;-96
2023/01/23 09:25:34;;;;;;;7.75;5.20;;;;;;;0.67;91.71;102635.56;4879589;29;20047;-93
2023/01/23 09:27:59;;;;;;;7.38;4.40;;;;;;;0.60;91.18;102614.25;4879192;29;20126;-96
2023/01/23 09:30:25;;;;;;;6.72;4.88;;;;;;;0.65;91.47;102607.56;4883972;29;20048;-96
2023/01/23 09:32:55;;;;;;;8.00;4.60;;;;;;;0.65;85.93;102612.66;4914145;29;20568;-95
2023/01/23 09:35:22;;;;;;;8.55;4.25;;;;;;;0.80;88.32;102633.25;4882416;29;20025;-95
2023/01/23 09:38:00;;;;;;;9.65;4.78;;;;;;;0.76;87.22;102615.41;4897755;29;20037;-96
2023/01/23 09:40:31;;;;;;;8.45;4.45;;;;;;;1.06;90.08;102648.13;4913886;29;20029;-95
2023/01/23 09:43:23;;;;;;;8.23;3.67;;;;;;;1.03;87.27;102631.13;4897506;29;20527;-95
2023/01/23 09:46:19;;;;;;;8.95;4.85;;;;;;;1.06;87.49;102589.63;4872821;29;20089;-96
2023/01/23 09:48:52;;;;;;;7.10;4.32;;;;;;;1.18;87.11;102599.16;4879806;29;20124;-95
2023/01/23 09:51:33;;;;;;;5.20;3.92;;;;;;;1.52;87.90;102641.25;4896934;29;20055;-96
2023/01/23 09:54:27;;;;;;;7.65;4.45;;;;;;;1.80;83.88;102636.56;4897043;29;20052;-95
2023/01/23 09:56:54;;;;;;;7.78;4.90;;;;;;;2.05;84.78;102604.63;4896526;29;20473;-95
2023/01/23 09:59:35;;;;;;;7.57;4.45;;;;;;;2.70;78.42;102629.19;4912792;29;20061;-96
2023/01/23 10:02:01;;;;;;;5.68;3.35;;;;;;;2.93;68.78;102632.00;4881096;29;20047;-95
2023/01/23 10:04:27;;;;;;;5.88;3.80;;;;;;;2.83;75.05;102610.63;4881073;29;20146;-96
2023/01/23 10:07:13;;;;;;;7.13;4.28;;;;;;;2.85;74.71;102613.19;4880955;29;20039;-95
2023/01/23 10:09:45;;;;;;;6.53;3.83;;;;;;;2.91;72.26;102609.00;4896347;29;20033;-95
2023/01/23 10:12:16;;;;;;;5.00;3.60;;;;;;;3.45;70.42;102655.41;4896599;29;20040;-96
2023/01/23 10:15:13;;;;;;;5.55;3.35;;;;;;;3.55;71.32;102623.13;4896641;29;20035;-96
2023/01/23 10:18:24;;;;;;;5.70;3.53;;;;;;;4.23;67.02;102660.97;4897149;29;20038;-96
2023/01/23 10:20:53;;;;;;;6.13;3.58;;;;;;;4.49;63.40;102624.44;4873051;29;20064;-95
2023/01/23 10:23:57;;;;;;;5.88;4.25;;;;;;;6.19;58.59;102638.91;4896003;29;20132;-96
2023/01/23 10:26:38;;;;;;;5.10;3.42;;;;;;;7.98;48.17;102613.56;4895684;29;20041;-96
2023/01/23 10:29:21;;;;;;;6.32;3.75;;;;;;;9.78;43.79;102649.53;4880889;29;20084;-96
2023/01/23 10:32:40;;;;;;;5.88;3.38;;;;;;;8.91;44.43;102624.34;4896646;29;20116;-96
2023/01/23 10:35:27;;;;;;;4.32;3.15;;;;;;;10.18;41.31;102664.22;4874533;29;20041;-96
2023/01/23 10:38:18;;;;;;;2.97;2.15;;;;;;;10.41;41.87;102674.97;4880116;29;20037;-96
2023/01/23 10:47:37;;;;;;;;;;;;;;;;;;;;;
2023/01/23 10:50:57;;;;;;;;;;;;;;;;;;;;;
2023/01/23 10:54:13;;;;;;;3.50;2.85;;;;;;;9.86;39.11;102669.13;4881115;29;20031;-96
2023/01/23 10:57:47;;;;;;;4.20;2.88;;;;;;;12.85;35.60;102653.09;4872768;29;20037;-96
2023/01/23 11:04:47;;;;;;;6.00;3.25;;;;;;;17.09;28.24;102671.66;4861445;29;20138;-96
2023/01/23 11:08:03;;;;;;;3.75;2.47;;;;;;;14.36;30.60;102668.66;4840978;29;20072;-96
2023/01/23 11:10:46;;;;;;;4.60;2.72;;;;;;;14.11;31.02;102632.38;4806638;29;20076;-95
2023/01/23 11:14:05;;;;;;;4.20;2.83;;;;;;;13.47;31.14;102626.00;4874119;29;20097;-96
2023/01/23 11:20:31;;;;;;;4.82;3.35;;;;;;;14.84;30.50;102646.91;4873045;29;20048;-95
2023/01/23 11:26:55;;;;;;;;;;;;;;;;;;;;;
2023/01/23 11:29:35;;;;;;;;;;;;;;;13.42;32.11;102669.41;4880869;29;20025;-95
2023/01/23 11:32:31;;;;;;;6.80;3.92;;;;;;;12.06;34.11;102625.25;4878706;29;19963;-96
2023/01/23 11:35:52;;;;;;;5.32;3.22;;;;;;;11.51;35.43;102668.97;4879368;29;20053;-95
2023/01/23 11:39:15;;;;;;;6.85;3.70;;;;;;;10.49;39.92;102628.34;4877414;29;20041;-95
2023/01/23 11:41:56;;;;;;;6.22;4.53;;;;;;;9.97;37.62;102624.22;4879190;29;20124;-96
2023/01/23 11:44:40;;;;;;;6.03;3.70;;;;;;;9.99;40.17;102635.34;4879825;29;20041;-95
2023/01/23 11:47:59;;;;;;;5.22;3.53;;;;;;;9.56;39.30;102649.03;4880182;29;20033;-96
2023/01/23 11:50:46;;;;;;;7.53;3.92;;;;;;;9.80;40.75;102648.63;4871673;29;20491;-96
2023/01/23 11:53:24;;;;;;;6.78;3.70;;;;;;;11.74;37.74;102641.66;4879410;29;20160;-96
2023/01/23 11:56:54;;;;;;;5.50;3.80;;;;;;;11.78;36.23;102636.34;4895762;29;20037;-96
2023/01/23 12:00:17;;;;;;;7.47;4.00;;;;;;;11.30;37.69;102634.16;4895711;29;20480;-96
2023/01/23 12:03:38;;;;;;;6.55;3.95;;;;;;;10.90;38.29;102642.06;4895697;29;20045;-96
2023/01/23 12:07:00;;;;;;;5.90;3.50;;;;;;;11.83;38.26;102632.78;4874815;29;20036;-96